Time;durP1;ratioP1;P1;durP2;ratioP2;P2;SDS_P1;SDS_P2;PMS_P1;PMS_P2;Temp;Humidity;BMP_temperature;BMP_pressure;BME280_temperature;BME280_humidity;BME280_pressure;Samples;Min_cycle;Max_cycle;Signal;HPM_P1;HPM_P2
2021/12/28 00:00:57;;;;;;;21.83;14.43;;;;;;;;;;5015964;28;20156;-64
2021/12/28 00:03:23;;;;;;;19.03;13.43;;;;;;;;;;5015337;28;20326;-64
2021/12/28 00:05:49;;;;;;;24.07;15.03;;;;;;;;;;5016030;28;20234;-64
2021/12/28 00:08:16;;;;;;;18.93;14.57;;;;;;;;;;5015857;28;20184;-65
2021/12/28 00:10:42;;;;;;;20.30;13.43;;;;;;;;;;5015191;28;20182;-64
2021/12/28 00:13:08;;;;;;;21.57;14.50;;;;;;;;;;5015276;28;20212;-64
2021/12/28 00:15:48;;;;;;;20.83;14.47;;;;;;;;;;5014161;28;20211;-65
2021/12/28 00:18:14;;;;;;;20.73;15.13;;;;;;;;;;5013976;28;20176;-64
2021/12/28 00:20:41;;;;;;;23.20;14.27;;;;;;;;;;5015598;28;20179;-64
2021/12/28 00:23:08;;;;;;;19.97;12.63;;;;;;;;;;5015393;28;20199;-64
2021/12/28 00:25:34;;;;;;;20.90;12.63;;;;;;;;;;5015532;28;20183;-64
2021/12/28 00:28:00;;;;;;;19.17;13.37;;;;;;;;;;5013888;28;20234;-64
2021/12/28 00:30:26;;;;;;;19.63;13.20;;;;;;;;;;5015536;28;20605;-65
2021/12/28 00:32:53;;;;;;;19.17;13.33;;;;;;;;;;5013619;28;20207;-63
2021/12/28 00:35:30;;;;;;;18.03;12.00;;;;;;;;;;5015268;28;20243;-64
2021/12/28 00:37:57;;;;;;;22.43;12.97;;;;;;;;;;5013842;28;20175;-65
2021/12/28 00:40:23;;;;;;;15.00;12.50;;;;;;;;;;5014969;28;20180;-64
2021/12/28 00:42:49;;;;;;;17.83;12.03;;;;;;;;;;5014751;28;20259;-65
2021/12/28 00:45:15;;;;;;;21.80;12.77;;;;;;;;;;5014747;28;20629;-64
2021/12/28 00:47:41;;;;;;;18.77;12.83;;;;;;;;;;5013429;28;20194;-65
2021/12/28 00:50:08;;;;;;;16.93;12.37;;;;;;;;;;5015068;28;20209;-65
2021/12/28 00:52:34;;;;;;;17.83;12.27;;;;;;;;;;5014164;28;20642;-63
2021/12/28 00:55:01;;;;;;;17.63;12.20;;;;;;;;;;5015127;28;20270;-65
2021/12/28 00:57:27;;;;;;;18.97;12.27;;;;;;;;;;5013407;28;20278;-66
2021/12/28 00:59:53;;;;;;;17.37;11.77;;;;;;;;;;5013302;28;20294;-65
2021/12/28 01:02:19;;;;;;;18.47;10.57;;;;;;;;;;5013817;28;20203;-65
2021/12/28 01:04:45;;;;;;;16.47;11.37;;;;;;;;;;5014833;28;20245;-64
2021/12/28 01:07:11;;;;;;;18.10;11.23;;;;;;;;;;5015232;28;20259;-66
2021/12/28 01:09:37;;;;;;;17.37;10.77;;;;;;;;;;5014981;28;20188;-66
2021/12/28 01:12:05;;;;;;;16.13;12.27;;;;;;;;;;5015001;28;20206;-66
2021/12/28 01:14:31;;;;;;;13.30;9.80;;;;;;;;;;5014805;28;20699;-64
2021/12/28 01:16:59;;;;;;;18.00;11.33;;;;;;;;;;5013935;28;20176;-64
2021/12/28 01:19:25;;;;;;;19.97;11.07;;;;;;;;;;5015027;28;20630;-65
2021/12/28 01:21:51;;;;;;;16.47;9.33;;;;;;;;;;5013299;28;20238;-67
2021/12/28 01:24:18;;;;;;;13.10;9.63;;;;;;;;;;5014934;28;20187;-65
2021/12/28 01:26:44;;;;;;;15.07;9.10;;;;;;;;;;5013425;28;20199;-65
2021/12/28 01:29:10;;;;;;;17.07;9.20;;;;;;;;;;5015039;28;20180;-65
2021/12/28 01:31:37;;;;;;;12.10;9.23;;;;;;;;;;5015240;28;20206;-64
2021/12/28 01:34:04;;;;;;;16.57;10.37;;;;;;;;;;5014499;28;20571;-66
2021/12/28 01:36:30;;;;;;;17.27;11.47;;;;;;;;;;5015150;28;20230;-66
2021/12/28 01:38:56;;;;;;;14.70;11.30;;;;;;;;;;5014941;28;20527;-64
2021/12/28 01:41:21;;;;;;;17.23;10.63;;;;;;;;;;5013160;28;20186;-65
2021/12/28 01:43:47;;;;;;;14.70;8.63;;;;;;;;;;5014972;28;20207;-64
2021/12/28 01:46:14;;;;;;;19.83;8.33;;;;;;;;;;5014777;28;20632;-63
2021/12/28 01:48:41;;;;;;;11.93;8.37;;;;;;;;;;5014381;28;20215;-64
2021/12/28 01:51:10;;;;;;;15.07;7.07;;;;;;;;;;5016445;28;20184;-68
2021/12/28 01:53:37;;;;;;;16.37;7.97;;;;;;;;;;5017263;28;20212;-64
2021/12/28 01:56:06;;;;;;;16.10;8.20;;;;;;;;;;5017898;28;20183;-64
2021/12/28 01:58:32;;;;;;;17.90;8.97;;;;;;;;;;5018479;28;20182;-65
2021/12/28 02:00:58;;;;;;;14.50;6.90;;;;;;;;;;5018156;28;20180;-65
2021/12/28 02:03:25;;;;;;;14.80;6.80;;;;;;;;;;5016491;28;20207;-65
2021/12/28 02:05:51;;;;;;;11.70;6.97;;;;;;;;;;5016175;28;20188;-64
2021/12/28 02:08:18;;;;;;;14.00;6.47;;;;;;;;;;5017739;28;20187;-66
2021/12/28 02:10:45;;;;;;;19.20;6.07;;;;;;;;;;5016339;28;20210;-65
2021/12/28 02:13:11;;;;;;;12.47;6.00;;;;;;;;;;5016090;28;20679;-65
2021/12/28 02:15:38;;;;;;;15.50;6.37;;;;;;;;;;5017482;28;20179;-63
2021/12/28 02:18:05;;;;;;;15.77;6.50;;;;;;;;;;5017397;28;20179;-65
2021/12/28 02:20:31;;;;;;;12.90;6.37;;;;;;;;;;5017278;28;20180;-65
2021/12/28 02:22:57;;;;;;;13.00;5.20;;;;;;;;;;5017685;28;20235;-66
2021/12/28 02:25:23;;;;;;;20.40;6.70;;;;;;;;;;5017466;28;20540;-64
2021/12/28 02:27:49;;;;;;;17.63;6.33;;;;;;;;;;5017544;28;20310;-64
2021/12/28 02:30:16;;;;;;;20.53;6.87;;;;;;;;;;5017113;28;20656;-66
2021/12/28 02:32:43;;;;;;;22.53;5.97;;;;;;;;;;5016814;28;20556;-66
2021/12/28 02:35:12;;;;;;;19.40;6.03;;;;;;;;;;5015874;28;20183;-66
2021/12/28 02:37:38;;;;;;;22.07;6.70;;;;;;;;;;5017370;28;20258;-66
2021/12/28 02:40:05;;;;;;;26.10;7.20;;;;;;;;;;5016692;28;20172;-65
2021/12/28 02:42:31;;;;;;;30.57;9.27;;;;;;;;;;5016362;28;20295;-65
2021/12/28 02:45:10;;;;;;;46.17;11.37;;;;;;;;;;5016517;28;20180;-65
2021/12/28 02:47:40;;;;;;;35.10;9.67;;;;;;;;;;5015189;28;20738;-64
2021/12/28 02:50:08;;;;;;;37.20;10.03;;;;;;;;;;5016547;28;20267;-66
2021/12/28 02:55:10;;;;;;;25.93;7.23;;;;;;;;;;5013573;28;20298;-66
2021/12/28 02:57:36;;;;;;;27.70;6.90;;;;;;;;;;5015213;28;20183;-67
2021/12/28 03:00:04;;;;;;;22.77;5.53;;;;;;;;;;5015521;28;20183;-66
2021/12/28 03:02:29;;;;;;;28.70;6.37;;;;;;;;;;5014296;28;20212;-67
2021/12/28 03:04:55;;;;;;;26.90;6.23;;;;;;;;;;5030300;28;20199;-67
2021/12/28 03:07:22;;;;;;;22.57;5.17;;;;;;;;;;5030243;28;20187;-67
2021/12/28 03:09:48;;;;;;;21.73;5.70;;;;;;;;;;5015171;28;20187;-66
2021/12/28 03:12:14;;;;;;;17.43;6.13;;;;;;;;;;5014890;28;20218;-66
2021/12/28 03:14:40;;;;;;;28.53;7.20;;;;;;;;;;5014752;28;20204;-66
2021/12/28 03:17:07;;;;;;;21.03;5.93;;;;;;;;;;5015104;28;20242;-67
2021/12/28 03:19:34;;;;;;;20.60;5.37;;;;;;;;;;5030018;28;20558;-67
2021/12/28 03:22:00;;;;;;;16.37;5.30;;;;;;;;;;5014772;28;20210;-67
2021/12/28 03:24:27;;;;;;;34.87;6.17;;;;;;;;;;5029947;28;20207;-65
2021/12/28 03:26:53;;;;;;;25.60;5.57;;;;;;;;;;5014670;28;20196;-66
2021/12/28 03:29:22;;;;;;;30.20;6.13;;;;;;;;;;5014643;28;20640;-65
2021/12/28 03:31:48;;;;;;;30.53;6.03;;;;;;;;;;5029759;28;20180;-65
2021/12/28 03:34:14;;;;;;;23.27;5.13;;;;;;;;;;5014475;28;20266;-65
2021/12/28 03:36:41;;;;;;;27.53;5.53;;;;;;;;;;5015059;28;20184;-64
2021/12/28 03:39:07;;;;;;;19.60;5.33;;;;;;;;;;5014382;28;20263;-65
2021/12/28 03:41:34;;;;;;;30.40;5.60;;;;;;;;;;5014481;28;20184;-65
2021/12/28 03:44:00;;;;;;;30.60;5.23;;;;;;;;;;5014540;28;20195;-65
2021/12/28 03:46:27;;;;;;;28.50;5.63;;;;;;;;;;5014277;28;20632;-65
2021/12/28 03:48:53;;;;;;;21.53;5.53;;;;;;;;;;5014404;28;20233;-65
2021/12/28 03:51:19;;;;;;;21.80;4.97;;;;;;;;;;5014578;28;20198;-65
2021/12/28 03:53:46;;;;;;;24.47;5.40;;;;;;;;;;5013969;28;20703;-65
2021/12/28 03:56:13;;;;;;;31.57;5.73;;;;;;;;;;5014712;28;20172;-65
2021/12/28 03:58:40;;;;;;;22.00;4.93;;;;;;;;;;5029299;28;20564;-65
2021/12/28 04:01:08;;;;;;;24.10;6.03;;;;;;;;;;5014264;28;20176;-65
2021/12/28 04:03:34;;;;;;;25.67;5.50;;;;;;;;;;5013959;28;20202;-65
2021/12/28 04:06:07;;;;;;;21.90;4.50;;;;;;;;;;5014036;28;20183;-65
2021/12/28 04:08:33;;;;;;;21.63;4.93;;;;;;;;;;5029934;28;20595;-65
2021/12/28 04:11:15;;;;;;;18.63;5.30;;;;;;;;;;5014529;28;20175;-66
2021/12/28 04:13:41;;;;;;;28.33;5.50;;;;;;;;;;5028635;28;20219;-66
2021/12/28 04:16:07;;;;;;;22.53;4.67;;;;;;;;;;5029147;28;20565;-64
2021/12/28 04:18:33;;;;;;;20.73;5.10;;;;;;;;;;5014079;28;20190;-65
2021/12/28 04:20:59;;;;;;;21.00;5.37;;;;;;;;;;5013748;28;20640;-65
2021/12/28 04:23:25;;;;;;;22.40;4.50;;;;;;;;;;5013635;28;20204;-65
2021/12/28 04:25:51;;;;;;;17.97;5.67;;;;;;;;;;5013705;28;20191;-65
2021/12/28 04:28:17;;;;;;;28.37;5.73;;;;;;;;;;5013651;28;20659;-64
2021/12/28 04:30:43;;;;;;;21.03;4.80;;;;;;;;;;5028915;28;20184;-65
2021/12/28 04:33:09;;;;;;;29.17;5.80;;;;;;;;;;5013827;28;20261;-65
2021/12/28 04:35:35;;;;;;;29.57;6.80;;;;;;;;;;5013522;28;20289;-65
2021/12/28 04:38:01;;;;;;;26.37;6.10;;;;;;;;;;5029591;28;20554;-64
2021/12/28 04:40:28;;;;;;;21.83;6.37;;;;;;;;;;5013591;28;20195;-64
2021/12/28 04:42:53;;;;;;;21.40;5.30;;;;;;;;;;5028643;28;20206;-64
2021/12/28 04:45:19;;;;;;;25.97;5.67;;;;;;;;;;5013479;28;20187;-65
2021/12/28 04:47:45;;;;;;;21.40;4.53;;;;;;;;;;5028726;28;20211;-64
2021/12/28 04:50:12;;;;;;;19.63;4.93;;;;;;;;;;5013719;28;20207;-64
2021/12/28 04:52:39;;;;;;;22.53;5.67;;;;;;;;;;5013278;28;20290;-65
2021/12/28 04:55:09;;;;;;;27.03;7.30;;;;;;;;;;5028540;28;20199;-65
2021/12/28 04:57:35;;;;;;;33.03;8.03;;;;;;;;;;5028854;28;20545;-65
2021/12/28 05:00:01;;;;;;;21.63;5.80;;;;;;;;;;5013373;28;20267;-65
2021/12/28 05:02:27;;;;;;;20.83;4.70;;;;;;;;;;5013508;28;20180;-65
2021/12/28 05:04:53;;;;;;;29.63;5.47;;;;;;;;;;5013271;28;20211;-65
2021/12/28 05:07:19;;;;;;;20.50;4.67;;;;;;;;;;5028478;28;20184;-65
2021/12/28 05:09:45;;;;;;;16.30;4.57;;;;;;;;;;5013268;28;20176;-65
2021/12/28 05:12:11;;;;;;;26.77;5.13;;;;;;;;;;5013442;28;20180;-65
2021/12/28 05:14:41;;;;;;;24.10;5.07;;;;;;;;;;5028500;28;20203;-65
2021/12/28 05:17:07;;;;;;;22.73;4.60;;;;;;;;;;5028434;28;20176;-65
2021/12/28 05:19:33;;;;;;;21.63;4.80;;;;;;;;;;5028439;28;20186;-64
2021/12/28 05:21:59;;;;;;;21.43;5.30;;;;;;;;;;5028382;28;20188;-64
2021/12/28 05:24:25;;;;;;;21.37;5.37;;;;;;;;;;5013110;28;20192;-64
2021/12/28 05:26:52;;;;;;;24.10;5.07;;;;;;;;;;5016501;28;20186;-64
2021/12/28 05:29:18;;;;;;;21.77;4.53;;;;;;;;;;5017435;28;20545;-64
2021/12/28 05:31:44;;;;;;;20.17;4.40;;;;;;;;;;5017138;28;20184;-64
2021/12/28 05:34:10;;;;;;;18.90;4.10;;;;;;;;;;5016635;28;20242;-64
2021/12/28 05:36:36;;;;;;;16.57;3.53;;;;;;;;;;5017094;28;20208;-66
2021/12/28 05:39:03;;;;;;;18.67;4.40;;;;;;;;;;5016738;28;20259;-65
2021/12/28 05:41:29;;;;;;;23.07;4.47;;;;;;;;;;5031815;28;20175;-65
2021/12/28 05:43:55;;;;;;;19.27;4.50;;;;;;;;;;5016512;28;20694;-65
2021/12/28 05:46:21;;;;;;;17.80;4.20;;;;;;;;;;5031864;28;20188;-65
2021/12/28 05:48:47;;;;;;;21.47;4.70;;;;;;;;;;5016791;28;20190;-65
2021/12/28 05:51:13;;;;;;;17.50;4.83;;;;;;;;;;5031784;28;20624;-65
2021/12/28 05:53:39;;;;;;;17.50;3.87;;;;;;;;;;5016438;28;20231;-64
2021/12/28 05:56:05;;;;;;;16.00;3.90;;;;;;;;;;5016612;28;20184;-66
2021/12/28 05:58:31;;;;;;;19.23;3.60;;;;;;;;;;5016422;28;20175;-65
2021/12/28 06:00:57;;;;;;;20.70;4.80;;;;;;;;;;5016263;28;20552;-65
2021/12/28 06:03:24;;;;;;;18.20;3.87;;;;;;;;;;5031471;28;20215;-65
2021/12/28 06:05:49;;;;;;;12.30;3.60;;;;;;;;;;5016551;28;20187;-65
2021/12/28 06:08:15;;;;;;;14.97;3.40;;;;;;;;;;5016263;28;20195;-65
2021/12/28 06:10:41;;;;;;;19.23;3.60;;;;;;;;;;5016086;28;20234;-65
2021/12/28 06:13:07;;;;;;;17.77;4.20;;;;;;;;;;5015909;28;20239;-65
2021/12/28 06:15:33;;;;;;;14.67;4.23;;;;;;;;;;5031239;28;20180;-66
2021/12/28 06:17:59;;;;;;;17.63;3.90;;;;;;;;;;5016017;28;20180;-65
2021/12/28 06:20:25;;;;;;;18.00;4.43;;;;;;;;;;5031324;28;20606;-66
2021/12/28 06:22:51;;;;;;;20.10;4.23;;;;;;;;;;5015924;28;20627;-65
2021/12/28 06:25:17;;;;;;;11.70;4.00;;;;;;;;;;5015924;28;20180;-64
2021/12/28 06:27:43;;;;;;;12.43;4.60;;;;;;;;;;5031076;28;20226;-64
2021/12/28 06:30:09;;;;;;;10.73;4.17;;;;;;;;;;5015807;28;20191;-64
2021/12/28 06:32:35;;;;;;;14.37;4.37;;;;;;;;;;5015860;28;20200;-64
2021/12/28 06:35:01;;;;;;;17.30;4.73;;;;;;;;;;5015665;28;20183;-65
2021/12/28 06:37:27;;;;;;;18.30;5.00;;;;;;;;;;5030708;28;20180;-65
2021/12/28 06:39:53;;;;;;;13.40;4.43;;;;;;;;;;5030808;28;20230;-65
2021/12/28 06:42:19;;;;;;;18.77;5.00;;;;;;;;;;5015519;28;20180;-64
2021/12/28 06:44:47;;;;;;;10.87;4.23;;;;;;;;;;5015575;28;20206;-65
2021/12/28 06:47:13;;;;;;;15.10;5.30;;;;;;;;;;5015505;28;20544;-65
2021/12/28 06:49:39;;;;;;;10.27;4.90;;;;;;;;;;5030732;28;20644;-65
2021/12/28 06:52:06;;;;;;;19.20;5.83;;;;;;;;;;5015817;28;20180;-65
2021/12/28 06:54:36;;;;;;;17.93;5.57;;;;;;;;;;5030346;28;20219;-65
2021/12/28 06:57:03;;;;;;;13.97;5.03;;;;;;;;;;5030584;28;20176;-65
2021/12/28 06:59:29;;;;;;;12.27;5.23;;;;;;;;;;5015678;28;20180;-65
2021/12/28 07:01:58;;;;;;;17.67;6.37;;;;;;;;;;5015537;28;20206;-65
2021/12/28 07:04:24;;;;;;;13.43;5.00;;;;;;;;;;5030239;28;20203;-64
2021/12/28 07:06:50;;;;;;;20.77;6.90;;;;;;;;;;5015055;28;20199;-65
2021/12/28 07:09:16;;;;;;;12.30;5.63;;;;;;;;;;5015017;28;20219;-64
2021/12/28 07:11:42;;;;;;;16.07;6.03;;;;;;;;;;5015414;28;20180;-64
2021/12/28 07:14:08;;;;;;;9.87;4.83;;;;;;;;;;5030056;28;20212;-65
2021/12/28 07:16:34;;;;;;;13.77;6.50;;;;;;;;;;5030222;28;20223;-65
2021/12/28 07:19:00;;;;;;;20.00;6.10;;;;;;;;;;5030052;28;20571;-64
2021/12/28 07:21:25;;;;;;;14.37;6.07;;;;;;;;;;5014802;28;20183;-64
2021/12/28 07:23:51;;;;;;;17.30;5.63;;;;;;;;;;5019853;28;20195;-65
2021/12/28 07:26:17;;;;;;;11.03;6.13;;;;;;;;;;5028908;28;20182;-65
2021/12/28 07:28:43;;;;;;;18.07;6.67;;;;;;;;;;5023638;28;20662;-65
2021/12/28 07:31:09;;;;;;;16.43;5.50;;;;;;;;;;5019718;28;20530;-65
2021/12/28 07:33:35;;;;;;;12.43;6.13;;;;;;;;;;5017420;28;20588;-65
2021/12/28 07:36:01;;;;;;;14.00;5.93;;;;;;;;;;5015296;28;20624;-65
2021/12/28 07:38:28;;;;;;;10.17;4.90;;;;;;;;;;5014994;28;20204;-65
2021/12/28 07:40:54;;;;;;;11.97;6.50;;;;;;;;;;5014516;28;20176;-64
2021/12/28 07:43:19;;;;;;;16.40;5.93;;;;;;;;;;5014731;28;20541;-66
2021/12/28 07:45:46;;;;;;;15.83;5.30;;;;;;;;;;5014440;28;20180;-65
2021/12/28 07:48:12;;;;;;;10.23;5.57;;;;;;;;;;5029047;28;20188;-66
2021/12/28 07:50:38;;;;;;;13.00;5.87;;;;;;;;;;5014957;28;20187;-65
2021/12/28 07:53:04;;;;;;;12.60;5.60;;;;;;;;;;5029270;28;20595;-65
2021/12/28 07:55:30;;;;;;;14.17;5.73;;;;;;;;;;5014864;28;20272;-64
2021/12/28 07:57:56;;;;;;;17.80;6.43;;;;;;;;;;5014517;28;20175;-65
2021/12/28 08:00:24;;;;;;;16.77;5.57;;;;;;;;;;5014483;28;20542;-65
2021/12/28 08:02:50;;;;;;;13.23;5.60;;;;;;;;;;5014180;28;20242;-65
2021/12/28 08:05:16;;;;;;;12.73;4.93;;;;;;;;;;5014208;28;20210;-65
2021/12/28 08:07:43;;;;;;;11.20;4.63;;;;;;;;;;5029198;28;20187;-64
2021/12/28 08:10:09;;;;;;;10.33;4.60;;;;;;;;;;5014122;28;20229;-65
2021/12/28 08:12:36;;;;;;;16.23;6.37;;;;;;;;;;5014080;28;20215;-66
2021/12/28 08:15:03;;;;;;;13.17;5.27;;;;;;;;;;5028845;28;20188;-65
2021/12/28 08:17:29;;;;;;;10.67;4.83;;;;;;;;;;5014023;28;20176;-65
2021/12/28 08:19:55;;;;;;;12.33;5.17;;;;;;;;;;5013934;28;20179;-64
2021/12/28 08:22:21;;;;;;;13.80;5.43;;;;;;;;;;5014083;28;20310;-66
2021/12/28 08:24:47;;;;;;;15.40;6.53;;;;;;;;;;5013694;28;20287;-64
2021/12/28 08:27:13;;;;;;;11.37;5.73;;;;;;;;;;5029010;28;20191;-65
2021/12/28 08:29:39;;;;;;;14.17;5.30;;;;;;;;;;5028866;28;20179;-64
2021/12/28 08:32:05;;;;;;;13.37;5.93;;;;;;;;;;5013968;28;20640;-64
2021/12/28 08:34:31;;;;;;;11.60;4.47;;;;;;;;;;5013628;28;20226;-64
2021/12/28 08:36:57;;;;;;;9.03;4.97;;;;;;;;;;5028885;28;20233;-64
2021/12/28 08:39:23;;;;;;;10.93;4.93;;;;;;;;;;5013711;28;20587;-64
2021/12/28 08:41:49;;;;;;;11.43;5.23;;;;;;;;;;5029730;28;20184;-64
2021/12/28 08:44:15;;;;;;;11.23;4.53;;;;;;;;;;5029557;28;20199;-64
2021/12/28 08:46:44;;;;;;;11.73;4.90;;;;;;;;;;5029560;28;20191;-64
2021/12/28 08:49:10;;;;;;;16.37;6.00;;;;;;;;;;5013923;28;20202;-64
2021/12/28 08:51:36;;;;;;;12.53;5.10;;;;;;;;;;5013888;28;20550;-64
2021/12/28 08:54:02;;;;;;;14.30;5.40;;;;;;;;;;5013443;28;20239;-64
2021/12/28 08:56:27;;;;;;;12.50;5.80;;;;;;;;;;5013920;28;20175;-64
2021/12/28 08:58:53;;;;;;;14.17;6.13;;;;;;;;;;5013327;28;20230;-64
2021/12/28 09:01:19;;;;;;;11.03;6.13;;;;;;;;;;5016098;28;20254;-65
2021/12/28 09:03:45;;;;;;;15.37;7.30;;;;;;;;;;5017525;28;20286;-64
2021/12/28 09:06:12;;;;;;;12.57;6.50;;;;;;;;;;5018006;28;20263;-64
2021/12/28 09:08:38;;;;;;;10.63;6.50;;;;;;;;;;5017461;28;20187;-64
2021/12/28 09:11:04;;;;;;;11.03;5.57;;;;;;;;;;5032521;28;20183;-66
2021/12/28 09:13:30;;;;;;;13.70;5.83;;;;;;;;;;5017032;28;20215;-65
2021/12/28 09:15:55;;;;;;;14.93;5.50;;;;;;;;;;5017264;28;20172;-65
2021/12/28 09:18:22;;;;;;;9.20;4.93;;;;;;;;;;5032361;28;20188;-65
2021/12/28 09:20:48;;;;;;;12.53;5.10;;;;;;;;;;5017037;28;20179;-64
2021/12/28 09:23:14;;;;;;;8.73;5.67;;;;;;;;;;5032143;28;20204;-64
2021/12/28 09:25:40;;;;;;;9.93;5.80;;;;;;;;;;5016903;28;20743;-64
2021/12/28 09:28:08;;;;;;;14.53;5.63;;;;;;;;;;5017242;28;20202;-64
2021/12/28 09:30:34;;;;;;;9.87;5.10;;;;;;;;;;5032112;28;20207;-65
2021/12/28 09:33:00;;;;;;;12.27;6.07;;;;;;;;;;5016769;28;20218;-64
2021/12/28 09:35:26;;;;;;;9.40;5.83;;;;;;;;;;5016845;28;20184;-64
2021/12/28 09:37:52;;;;;;;10.23;5.97;;;;;;;;;;5016825;28;20179;-65
2021/12/28 09:40:18;;;;;;;14.17;6.37;;;;;;;;;;5016753;28;20218;-64
2021/12/28 09:42:44;;;;;;;13.60;5.90;;;;;;;;;;5031814;28;20180;-64
2021/12/28 09:45:12;;;;;;;13.83;6.43;;;;;;;;;;5016904;28;20184;-65
2021/12/28 09:47:38;;;;;;;12.93;7.37;;;;;;;;;;5031763;28;20230;-64
2021/12/28 09:50:05;;;;;;;11.60;7.63;;;;;;;;;;5031793;28;20188;-65
2021/12/28 09:52:31;;;;;;;17.50;7.70;;;;;;;;;;5016323;28;20644;-64
2021/12/28 09:54:57;;;;;;;17.93;8.20;;;;;;;;;;5031465;28;20258;-65
2021/12/28 09:57:23;;;;;;;11.47;7.07;;;;;;;;;;5032425;28;20180;-65
2021/12/28 09:59:49;;;;;;;10.43;6.07;;;;;;;;;;5016856;28;20179;-64
2021/12/28 10:02:16;;;;;;;9.67;5.93;;;;;;;;;;5031509;28;20326;-65
2021/12/28 10:04:56;;;;;;;10.50;5.53;;;;;;;;;;5016459;28;20241;-65
2021/12/28 10:07:23;;;;;;;13.20;5.83;;;;;;;;;;5031456;28;20775;-64
2021/12/28 10:09:50;;;;;;;11.33;5.63;;;;;;;;;;5031397;28;20190;-65
2021/12/28 10:12:28;;;;;;;10.83;5.37;;;;;;;;;;5016047;28;20250;-64
2021/12/28 10:14:55;;;;;;;7.80;5.03;;;;;;;;;;5031797;28;20202;-65
2021/12/28 10:17:26;;;;;;;11.00;5.83;;;;;;;;;;5031344;28;20321;-65
2021/12/28 10:19:52;;;;;;;9.93;5.90;;;;;;;;;;5016001;28;20179;-65
2021/12/28 10:22:21;;;;;;;12.70;6.20;;;;;;;;;;5031290;28;20179;-64
2021/12/28 10:24:48;;;;;;;9.77;6.13;;;;;;;;;;5016036;28;20741;-65
2021/12/28 10:27:15;;;;;;;13.57;7.20;;;;;;;;;;5031237;28;20180;-65
2021/12/28 10:29:42;;;;;;;11.77;7.80;;;;;;;;;;5015938;28;20534;-65
2021/12/28 10:32:22;;;;;;;12.60;8.43;;;;;;;;;;5031431;28;20210;-65
2021/12/28 10:34:50;;;;;;;14.77;8.20;;;;;;;;;;5017051;28;20223;-65
2021/12/28 10:37:17;;;;;;;20.17;9.73;;;;;;;;;;5033976;28;20190;-65
2021/12/28 10:39:44;;;;;;;16.90;9.40;;;;;;;;;;5018484;28;20547;-65
2021/12/28 10:42:10;;;;;;;18.10;10.03;;;;;;;;;;5032521;28;20687;-64
2021/12/28 10:44:55;;;;;;;17.17;10.93;;;;;;;;;;5017279;28;20246;-65
2021/12/28 10:47:25;;;;;;;23.60;13.20;;;;;;;;;;5015718;28;20183;-64
2021/12/28 10:49:51;;;;;;;20.77;12.73;;;;;;;;;;5015586;28;20180;-64
2021/12/28 10:52:37;;;;;;;23.13;11.80;;;;;;;;;;5015543;28;20172;-65
2021/12/28 10:55:23;;;;;;;18.77;10.70;;;;;;;;;;5014072;28;20218;-65
2021/12/28 10:57:49;;;;;;;20.43;11.70;;;;;;;;;;5015249;28;20180;-64
2021/12/28 11:00:29;;;;;;;16.73;10.20;;;;;;;;;;5015312;28;20203;-64
2021/12/28 11:03:16;;;;;;;18.00;9.33;;;;;;;;;;5015455;28;20199;-64
2021/12/28 11:05:44;;;;;;;14.77;9.10;;;;;;;;;;5030356;28;20627;-63
2021/12/28 11:08:10;;;;;;;16.50;9.47;;;;;;;;;;5030363;28;20549;-63
2021/12/28 11:10:40;;;;;;;14.57;8.00;;;;;;;;;;5030492;28;20210;-64
2021/12/28 11:13:06;;;;;;;15.03;8.47;;;;;;;;;;5030588;28;20211;-65
2021/12/28 11:15:37;;;;;;;15.13;8.43;;;;;;;;;;5030341;28;20187;-64
2021/12/28 11:18:22;;;;;;;15.90;8.80;;;;;;;;;;5029941;28;20551;-65
2021/12/28 11:20:48;;;;;;;13.30;8.37;;;;;;;;;;5014801;28;20176;-65
2021/12/28 11:23:16;;;;;;;17.60;10.40;;;;;;;;;;5013505;28;20684;-65
2021/12/28 11:25:42;;;;;;;23.63;10.97;;;;;;;;;;5013988;28;20682;-65
2021/12/28 11:28:16;;;;;;;15.93;9.23;;;;;;;;;;5013249;28;20180;-65
2021/12/28 11:30:57;;;;;;;16.23;9.43;;;;;;;;;;5014789;28;20160;-65
2021/12/28 11:33:23;;;;;;;14.27;7.67;;;;;;;;;;5029541;28;20608;-65
2021/12/28 11:35:49;;;;;;;11.03;7.60;;;;;;;;;;5029617;28;20187;-65
2021/12/28 11:38:15;;;;;;;11.57;6.93;;;;;;;;;;5014902;28;20176;-65
2021/12/28 11:40:41;;;;;;;12.70;7.53;;;;;;;;;;5014337;28;20187;-65
2021/12/28 11:43:07;;;;;;;8.27;6.53;;;;;;;;;;5029303;28;20585;-65
2021/12/28 11:45:33;;;;;;;9.00;5.93;;;;;;;;;;5029396;28;20221;-65
2021/12/28 11:48:00;;;;;;;14.23;7.00;;;;;;;;;;5014138;28;20648;-65
2021/12/28 11:50:26;;;;;;;11.20;7.17;;;;;;;;;;5029243;28;20270;-65
2021/12/28 11:52:52;;;;;;;14.60;7.53;;;;;;;;;;5013799;28;20287;-65
2021/12/28 11:55:19;;;;;;;11.20;6.47;;;;;;;;;;5029211;28;20180;-65
2021/12/28 11:57:53;;;;;;;9.70;6.87;;;;;;;;;;5014294;28;20180;-66
2021/12/28 12:00:21;;;;;;;9.77;6.63;;;;;;;;;;5013945;28;20180;-64
2021/12/28 12:02:49;;;;;;;9.83;6.70;;;;;;;;;;5029059;28;20188;-64
2021/12/28 12:05:15;;;;;;;6.53;4.90;;;;;;;;;;5029134;28;20187;-64
2021/12/28 12:07:41;;;;;;;8.17;5.17;;;;;;;;;;5013938;28;20186;-65
2021/12/28 12:10:12;;;;;;;9.17;5.03;;;;;;;;;;5013822;28;20271;-65
2021/12/28 12:12:53;;;;;;;6.47;4.67;;;;;;;;;;5029095;28;20210;-65
2021/12/28 12:15:19;;;;;;;10.37;5.83;;;;;;;;;;5029082;28;20180;-65
2021/12/28 12:17:47;;;;;;;7.73;6.33;;;;;;;;;;5029204;28;20199;-65
2021/12/28 12:20:19;;;;;;;8.30;6.47;;;;;;;;;;5013853;28;20180;-65
2021/12/28 12:22:51;;;;;;;13.23;6.30;;;;;;;;;;5013668;28;20225;-67
2021/12/28 12:25:22;;;;;;;8.23;5.87;;;;;;;;;;5013784;28;20180;-65
2021/12/28 12:27:48;;;;;;;8.80;6.10;;;;;;;;;;5013752;28;20262;-66
2021/12/28 12:30:27;;;;;;;7.33;4.90;;;;;;;;;;5028942;28;20401;-65
2021/12/28 12:35:55;;;;;;;8.33;5.33;;;;;;;;;;5013591;28;20632;-65
2021/12/28 12:38:24;;;;;;;8.57;4.47;;;;;;;;;;4980811;28;20199;-65
2021/12/28 12:40:51;;;;;;;9.17;4.13;;;;;;;;;;5013369;28;20179;-65
2021/12/28 12:43:17;;;;;;;11.53;4.00;;;;;;;;;;5013811;28;20200;-65
2021/12/28 12:45:52;;;;;;;10.00;3.17;;;;;;;;;;5013306;28;20210;-66
2021/12/28 12:48:31;;;;;;;17.17;3.40;;;;;;;;;;5013563;28;20593;-65
2021/12/28 12:51:16;;;;;;;20.37;5.00;;;;;;;;;;5013210;28;20187;-65
2021/12/28 12:53:54;;;;;;;14.77;4.67;;;;;;;;;;5013155;28;20251;-65
2021/12/28 12:56:25;;;;;;;16.63;4.77;;;;;;;;;;5028462;28;20182;-65
2021/12/28 12:58:52;;;;;;;25.27;8.93;;;;;;;;;;5028366;28;20172;-65
2021/12/28 13:01:27;;;;;;;9.63;3.83;;;;;;;;;;5013650;28;20176;-65
2021/12/28 13:03:57;;;;;;;22.03;4.93;;;;;;;;;;5013021;28;20207;-65
2021/12/28 13:06:41;;;;;;;20.53;5.97;;;;;;;;;;5013131;28;20183;-65
2021/12/28 13:09:08;;;;;;;17.60;4.97;;;;;;;;;;5028108;28;20274;-65
2021/12/28 13:11:34;;;;;;;12.70;3.50;;;;;;;;;;5028213;28;20187;-65
2021/12/28 13:14:00;;;;;;;17.50;3.73;;;;;;;;;;5028377;28;20238;-65
2021/12/28 13:16:27;;;;;;;18.57;4.70;;;;;;;;;;5012993;28;20172;-65
2021/12/28 13:19:08;;;;;;;23.47;4.83;;;;;;;;;;5028130;28;20524;-65
2021/12/28 13:21:35;;;;;;;17.47;3.90;;;;;;;;;;5013021;28;20187;-65
2021/12/28 13:24:11;;;;;;;18.63;4.60;;;;;;;;;;5013166;28;20203;-65
2021/12/28 13:26:44;;;;;;;21.43;4.30;;;;;;;;;;5013157;28;20183;-65
2021/12/28 13:29:10;;;;;;;14.13;4.03;;;;;;;;;;5013037;28;20184;-65
2021/12/28 13:31:36;;;;;;;20.47;5.03;;;;;;;;;;5028296;28;20238;-65
2021/12/28 13:34:03;;;;;;;19.50;4.83;;;;;;;;;;5013010;28;20212;-65
2021/12/28 13:36:29;;;;;;;18.30;4.57;;;;;;;;;;5028263;28;20180;-64
2021/12/28 13:39:08;;;;;;;21.10;4.60;;;;;;;;;;5028399;28;20200;-65
2021/12/28 13:41:34;;;;;;;21.20;4.50;;;;;;;;;;5013267;28;20266;-65
2021/12/28 13:44:04;;;;;;;22.33;4.33;;;;;;;;;;5028457;28;20754;-65
2021/12/28 13:46:30;;;;;;;18.60;4.33;;;;;;;;;;5029510;28;20194;-65
2021/12/28 13:48:58;;;;;;;18.20;4.37;;;;;;;;;;5017253;28;20176;-65
2021/12/28 13:51:24;;;;;;;20.30;4.87;;;;;;;;;;5016517;28;20346;-65
2021/12/28 13:53:51;;;;;;;21.70;4.67;;;;;;;;;;5016088;28;20223;-65
2021/12/28 13:56:22;;;;;;;18.20;6.17;;;;;;;;;;5016355;28;20179;-65
2021/12/28 13:58:49;;;;;;;12.13;4.47;;;;;;;;;;5016197;28;20644;-64
2021/12/28 14:01:17;;;;;;;19.50;4.80;;;;;;;;;;5016392;28;20263;-65
2021/12/28 14:03:54;;;;;;;24.33;6.27;;;;;;;;;;5016427;28;20199;-64
2021/12/28 14:06:20;;;;;;;19.27;5.07;;;;;;;;;;5031446;28;20186;-64
2021/12/28 14:08:46;;;;;;;22.30;5.00;;;;;;;;;;5016101;28;20176;-65
2021/12/28 14:11:12;;;;;;;19.47;5.17;;;;;;;;;;5016446;28;20214;-65
2021/12/28 14:13:41;;;;;;;17.17;4.30;;;;;;;;;;5015602;28;20243;-65
2021/12/28 14:16:07;;;;;;;19.20;5.13;;;;;;;;;;5015828;28;20199;-65
2021/12/28 14:18:47;;;;;;;21.20;4.77;;;;;;;;;;5016079;28;20592;-65
2021/12/28 14:21:15;;;;;;;19.33;4.60;;;;;;;;;;5015774;28;20176;-65
2021/12/28 14:23:41;;;;;;;25.27;5.17;;;;;;;;;;5015847;28;20616;-65
2021/12/28 14:26:12;;;;;;;24.80;5.10;;;;;;;;;;5015882;28;20180;-64
2021/12/28 14:28:41;;;;;;;22.40;4.93;;;;;;;;;;5015534;28;20195;-65
2021/12/28 14:31:14;;;;;;;20.83;4.50;;;;;;;;;;5015856;28;20261;-64
2021/12/28 14:33:49;;;;;;;23.33;5.27;;;;;;;;;;5015834;28;20294;-65
2021/12/28 14:36:16;;;;;;;30.70;5.23;;;;;;;;;;5030687;28;20254;-65